Time;durP1;ratioP1;P1;durP2;ratioP2;P2;SDS_P1;SDS_P2;PMS_P1;PMS_P2;Temp;Humidity;BMP_temperature;BMP_pressure;BME280_temperature;BME280_humidity;BME280_pressure;Samples;Min_cycle;Max_cycle;Signal;HPM_P1;HPM_P2
2021/09/06 00:01:34;;;;;;;;;;;16.60;99.90;;;;;;5115956;28;19934;-75
2021/09/06 00:04:07;;;;;;;;;;;16.60;99.90;;;;;;5116275;28;19935;-75
2021/09/06 00:06:37;;;;;;;;;;;16.50;99.90;;;;;;5116265;28;19923;-75
2021/09/06 00:09:03;;;;;;;;;;;16.50;99.90;;;;;;5115910;28;19924;-75
2021/09/06 00:11:31;;;;;;;;;;;16.60;99.90;;;;;;5115799;28;19923;-75
2021/09/06 00:13:59;;;;;;;;;;;16.50;99.90;;;;;;5115917;28;19934;-75
2021/09/06 00:16:27;;;;;;;;;;;16.50;99.90;;;;;;5116095;27;19940;-75
2021/09/06 00:18:58;;;;;;;;;;;16.50;99.90;;;;;;5115748;28;19935;-75
2021/09/06 00:21:26;;;;;;;;;;;16.50;99.90;;;;;;5115740;28;19924;-75
2021/09/06 00:23:54;;;;;;;;;;;16.50;99.90;;;;;;5115799;28;20260;-75
2021/09/06 00:26:23;;;;;;;;;;;16.50;99.90;;;;;;5115787;28;19924;-75
2021/09/06 00:28:51;;;;;;;;;;;16.50;99.90;;;;;;5115633;28;19923;-75
2021/09/06 00:31:21;;;;;;;;;;;16.50;99.90;;;;;;5115619;28;20340;-75
2021/09/06 00:33:51;;;;;;;;;;;16.60;99.90;;;;;;5115581;28;20339;-75
2021/09/06 00:36:19;;;;;;;;;;;16.60;99.90;;;;;;5115673;28;19935;-75
2021/09/06 00:38:50;;;;;;;;;;;16.60;99.90;;;;;;5115322;28;20355;-75
2021/09/06 00:41:16;;;;;;;;;;;16.60;99.90;;;;;;5115581;28;19924;-75
2021/09/06 00:43:45;;;;;;;;;;;16.60;99.90;;;;;;5115407;28;20359;-75
2021/09/06 00:46:15;;;;;;;;;;;16.60;99.90;;;;;;5115562;28;19924;-75
2021/09/06 00:48:43;;;;;;;;;;;16.60;99.90;;;;;;5115431;28;20006;-75
2021/09/06 00:51:11;;;;;;;;;;;16.60;99.90;;;;;;5115258;28;20344;-75
2021/09/06 00:53:39;;;;;;;;;;;16.60;99.90;;;;;;5115550;28;19934;-75
2021/09/06 00:56:09;;;;;;;;;;;16.60;99.90;;;;;;5115407;28;19924;-75
2021/09/06 00:58:37;;;;;;;;;;;16.60;99.90;;;;;;5115516;28;19924;-75
2021/09/06 01:01:05;;;;;;;;;;;16.60;99.90;;;;;;5116961;28;19924;-75
2021/09/06 01:03:33;;;;;;;;;;;16.60;99.90;;;;;;5119568;28;19934;-75
2021/09/06 01:06:01;;;;;;;;;;;16.60;99.90;;;;;;5119464;28;19924;-75
2021/09/06 01:08:28;;;;;;;;;;;16.60;99.90;;;;;;5119440;28;19938;-75
2021/09/06 01:10:57;;;;;;;;;;;16.60;99.90;;;;;;5119655;28;19924;-75
2021/09/06 01:13:26;;;;;;;;;;;16.50;99.90;;;;;;5119295;28;20340;-75
2021/09/06 01:15:54;;;;;;;;;;;16.50;99.90;;;;;;5119352;28;20263;-75
2021/09/06 01:18:23;;;;;;;;;;;16.40;99.90;;;;;;5119190;28;19934;-75
2021/09/06 01:20:52;;;;;;;;;;;16.40;99.90;;;;;;5119241;28;20018;-75
2021/09/06 01:23:19;;;;;;;;;;;16.40;99.90;;;;;;5119252;28;19924;-75
2021/09/06 01:25:50;;;;;;;;;;;16.40;99.90;;;;;;5119187;28;19934;-75
2021/09/06 01:28:16;;;;;;;;;;;16.40;99.90;;;;;;5119014;28;19935;-75
2021/09/06 01:30:44;;;;;;;;;;;16.40;99.90;;;;;;5118946;27;19927;-75
2021/09/06 01:33:12;;;;;;;;;;;16.40;99.90;;;;;;5118872;28;19924;-75
2021/09/06 01:35:40;;;;;;;;;;;16.40;99.90;;;;;;5119152;28;19924;-75
2021/09/06 01:38:09;;;;;;;;;;;16.40;99.90;;;;;;5118789;28;19938;-75
2021/09/06 01:40:35;;;;;;;;;;;16.40;99.90;;;;;;5118507;28;20263;-75
2021/09/06 01:43:05;;;;;;;;;;;16.40;99.90;;;;;;5118598;28;19924;-75
2021/09/06 01:45:33;;;;;;;;;;;16.40;99.90;;;;;;5118670;28;19924;-75
2021/09/06 01:48:01;;;;;;;;;;;16.40;99.90;;;;;;5118605;28;20366;-75
2021/09/06 01:50:29;;;;;;;;;;;16.40;99.90;;;;;;5118710;28;19931;-75
2021/09/06 01:53:00;;;;;;;;;;;16.40;99.90;;;;;;5118571;28;20347;-75
2021/09/06 01:55:28;;;;;;;;;;;16.40;99.90;;;;;;5118615;27;19924;-75
2021/09/06 01:57:56;;;;;;;;;;;16.40;99.90;;;;;;5118575;28;20255;-75
2021/09/06 02:00:25;;;;;;;;;;;16.40;99.90;;;;;;5118569;28;19924;-75
2021/09/06 02:02:55;;;;;;;;;;;16.40;99.90;;;;;;5118591;28;19946;-75
2021/09/06 02:05:23;;;;;;;;;;;16.40;99.90;;;;;;5118512;28;19923;-75
2021/09/06 02:07:52;;;;;;;;;;;16.40;99.90;;;;;;5118470;28;19924;-75
2021/09/06 02:10:20;;;;;;;;;;;16.40;99.90;;;;;;5117819;28;19924;-75
2021/09/06 02:12:48;;;;;;;;;;;16.40;99.90;;;;;;5117666;28;19924;-75
2021/09/06 02:15:17;;;;;;;;;;;16.40;99.90;;;;;;5118076;27;19924;-75
2021/09/06 02:17:46;;;;;;;;;;;16.40;99.90;;;;;;5118067;28;19938;-75
2021/09/06 02:20:14;;;;;;;;;;;16.40;99.90;;;;;;5118136;28;20377;-75
2021/09/06 02:22:42;;;;;;;;;;;16.40;99.90;;;;;;5117934;28;19947;-75
2021/09/06 02:25:10;;;;;;;;;;;16.30;99.90;;;;;;5118092;28;19924;-75
2021/09/06 02:27:41;;;;;;;;;;;16.30;99.90;;;;;;5117865;28;20305;-75
2021/09/06 02:30:09;;;;;;;;;;;16.30;99.90;;;;;;5117973;28;19928;-75
2021/09/06 02:32:37;;;;;;;;;;;16.30;99.90;;;;;;5117701;28;19923;-75
2021/09/06 02:35:07;;;;;;;;;;;16.30;99.90;;;;;;5117702;28;19923;-75
2021/09/06 02:37:35;;;;;;;;;;;16.30;99.90;;;;;;5117716;28;20260;-75
2021/09/06 02:40:03;;;;;;;;;;;16.30;99.90;;;;;;5117402;28;20389;-75
2021/09/06 02:42:31;;;;;;;;;;;16.30;99.90;;;;;;5117745;28;20279;-75
2021/09/06 02:44:59;;;;;;;;;;;16.30;99.90;;;;;;5117595;28;19945;-75
2021/09/06 02:47:29;;;;;;;;;;;16.30;99.90;;;;;;5117440;28;19924;-75
2021/09/06 02:49:58;;;;;;;;;;;16.30;99.90;;;;;;5117522;28;19923;-75
2021/09/06 02:52:28;;;;;;;;;;;16.30;99.90;;;;;;5117382;28;19924;-75
2021/09/06 02:54:56;;;;;;;;;;;16.30;99.90;;;;;;5117360;28;19924;-75
2021/09/06 02:57:24;;;;;;;;;;;16.30;99.90;;;;;;5117271;28;19934;-75
2021/09/06 02:59:52;;;;;;;;;;;16.30;99.90;;;;;;5117476;28;19924;-75
2021/09/06 03:02:20;;;;;;;;;;;16.20;99.90;;;;;;5117018;28;19928;-75
2021/09/06 03:04:48;;;;;;;;;;;16.30;99.90;;;;;;5114872;28;19972;-75
2021/09/06 03:07:19;;;;;;;;;;;16.20;99.90;;;;;;5117114;28;19930;-76
2021/09/06 03:09:48;;;;;;;;;;;16.20;99.90;;;;;;5117548;28;19985;-75
2021/09/06 03:12:17;;;;;;;;;;;16.20;99.90;;;;;;5117201;27;19923;-75
2021/09/06 03:14:43;;;;;;;;;;;16.20;99.90;;;;;;5117034;28;19928;-75
2021/09/06 03:17:10;;;;;;;;;;;16.20;99.90;;;;;;5117108;28;19934;-75
2021/09/06 03:19:38;;;;;;;;;;;16.20;99.90;;;;;;5116849;28;19924;-75
2021/09/06 03:22:07;;;;;;;;;;;16.20;99.90;;;;;;5117026;28;19924;-76
2021/09/06 03:24:35;;;;;;;;;;;16.20;99.90;;;;;;5116373;28;19924;-75
2021/09/06 03:27:04;;;;;;;;;;;16.10;99.90;;;;;;5116747;28;19924;-75
2021/09/06 03:29:34;;;;;;;;;;;16.10;99.90;;;;;;5116851;28;19924;-76
2021/09/06 03:32:03;;;;;;;;;;;16.10;99.90;;;;;;5116735;28;19945;-75
2021/09/06 03:34:29;;;;;;;;;;;16.10;99.90;;;;;;5116636;28;19937;-75
2021/09/06 03:36:56;;;;;;;;;;;16.10;99.90;;;;;;5117086;27;20255;-75
2021/09/06 03:39:23;;;;;;;;;;;16.10;99.90;;;;;;5116332;28;19930;-75
2021/09/06 03:41:50;;;;;;;;;;;16.10;99.90;;;;;;5116370;28;19934;-75
2021/09/06 03:44:19;;;;;;;;;;;16.10;99.90;;;;;;5116435;28;19934;-75
2021/09/06 03:46:46;;;;;;;;;;;16.10;99.90;;;;;;5116302;28;19932;-75
2021/09/06 03:49:13;;;;;;;;;;;16.10;99.90;;;;;;5116256;28;20227;-75
2021/09/06 03:51:39;;;;;;;;;;;16.10;99.90;;;;;;5116252;28;19934;-75
2021/09/06 03:54:06;;;;;;;;;;;16.10;99.90;;;;;;5116511;28;19924;-75
2021/09/06 03:56:33;;;;;;;;;;;16.10;99.90;;;;;;5116358;28;19934;-75
2021/09/06 03:59:00;;;;;;;;;;;16.00;99.90;;;;;;5116212;28;19924;-76
2021/09/06 04:01:28;;;;;;;;;;;16.00;99.90;;;;;;5115280;28;20278;-75
2021/09/06 04:03:55;;;;;;;;;;;16.00;99.90;;;;;;5116162;28;19924;-76
2021/09/06 04:06:22;;;;;;;;;;;16.00;99.90;;;;;;5116202;28;19924;-75
2021/09/06 04:08:49;;;;;;;;;;;16.00;99.90;;;;;;5115957;28;19928;-75
2021/09/06 04:11:15;;;;;;;;;;;16.00;99.90;;;;;;5116171;28;19934;-76
2021/09/06 04:13:43;;;;;;;;;;;16.00;99.90;;;;;;5116023;28;19934;-75
2021/09/06 04:16:10;;;;;;;;;;;15.90;99.90;;;;;;5115919;28;19924;-75
2021/09/06 04:18:39;;;;;;;;;;;15.90;99.90;;;;;;5116021;28;19924;-75
2021/09/06 04:21:05;;;;;;;;;;;15.90;99.90;;;;;;5115942;28;19930;-75
2021/09/06 04:23:32;;;;;;;;;;;15.90;99.90;;;;;;5115629;28;19924;-75
2021/09/06 04:26:00;;;;;;;;;;;15.90;99.90;;;;;;5115895;28;19927;-75
2021/09/06 04:28:27;;;;;;;;;;;16.00;99.90;;;;;;5115917;28;19967;-75
2021/09/06 04:30:54;;;;;;;;;;;16.00;99.90;;;;;;5115579;28;19924;-76
2021/09/06 04:33:21;;;;;;;;;;;16.00;99.90;;;;;;5115853;28;19947;-75
2021/09/06 04:35:49;;;;;;;;;;;16.00;99.90;;;;;;5115523;28;19934;-76
2021/09/06 04:38:16;;;;;;;;;;;15.90;99.90;;;;;;5115464;28;19934;-76
2021/09/06 04:40:43;;;;;;;;;;;15.90;99.90;;;;;;5115548;28;20430;-75
2021/09/06 04:43:09;;;;;;;;;;;15.90;99.90;;;;;;5115479;28;19938;-76
2021/09/06 04:45:36;;;;;;;;;;;15.90;99.90;;;;;;5115467;28;19934;-76
2021/09/06 04:48:03;;;;;;;;;;;15.90;99.90;;;;;;5115723;28;19924;-76
2021/09/06 04:50:30;;;;;;;;;;;15.80;99.90;;;;;;5115617;28;19934;-76
2021/09/06 04:52:58;;;;;;;;;;;15.80;99.90;;;;;;5115641;28;19924;-75
2021/09/06 04:55:25;;;;;;;;;;;15.80;99.90;;;;;;5115478;28;19924;-76
2021/09/06 04:57:52;;;;;;;;;;;15.80;99.90;;;;;;5115387;28;19924;-75
2021/09/06 05:00:19;;;;;;;;;;;15.80;99.90;;;;;;5115397;28;19927;-75
2021/09/06 05:02:46;;;;;;;;;;;15.70;99.90;;;;;;5115531;28;19946;-75
2021/09/06 05:05:13;;;;;;;;;;;15.70;99.90;;;;;;5115235;28;19938;-75
2021/09/06 05:07:39;;;;;;;;;;;15.70;99.90;;;;;;5115388;28;19927;-75
2021/09/06 05:10:08;;;;;;;;;;;15.70;99.90;;;;;;5115303;28;19924;-75
2021/09/06 05:12:35;;;;;;;;;;;15.60;99.90;;;;;;5115321;28;19924;-75
2021/09/06 05:15:02;;;;;;;;;;;15.60;99.90;;;;;;5115237;28;20393;-76
2021/09/06 05:17:29;;;;;;;;;;;15.50;99.90;;;;;;5115180;28;19924;-76
2021/09/06 05:19:55;;;;;;;;;;;15.50;99.90;;;;;;5115340;28;19935;-76
2021/09/06 05:22:22;;;;;;;;;;;15.60;99.90;;;;;;5115262;28;20255;-75
2021/09/06 05:24:53;;;;;;;;;;;15.60;99.90;;;;;;5115241;28;19927;-75
2021/09/06 05:27:21;;;;;;;;;;;15.60;99.90;;;;;;5115275;28;19923;-75
2021/09/06 05:29:48;;;;;;;;;;;15.60;99.90;;;;;;5115474;28;19927;-75
2021/09/06 05:32:15;;;;;;;;;;;15.60;99.90;;;;;;5115014;28;20351;-75
2021/09/06 05:34:42;;;;;;;;;;;15.60;99.90;;;;;;5115067;28;19934;-75
2021/09/06 05:37:09;;;;;;;;;;;15.60;99.90;;;;;;5115143;28;19924;-75
2021/09/06 05:39:35;;;;;;;;;;;15.60;99.90;;;;;;5114801;28;20382;-74
2021/09/06 05:42:02;;;;;;;;;;;15.60;99.90;;;;;;5114936;28;19924;-75
2021/09/06 05:44:31;;;;;;;;;;;15.60;99.90;;;;;;5114874;28;19938;-75
2021/09/06 05:46:57;;;;;;;;;;;15.60;99.90;;;;;;5116220;28;20344;-75
2021/09/06 05:49:24;;;;;;;;;;;15.60;99.90;;;;;;5118659;28;19924;-75
2021/09/06 05:51:51;;;;;;;;;;;15.60;99.90;;;;;;5118775;28;19923;-75
2021/09/06 05:54:18;;;;;;;;;;;15.50;99.90;;;;;;5118584;28;20275;-75
2021/09/06 05:56:45;;;;;;;;;;;15.60;99.90;;;;;;5118530;28;19924;-76
2021/09/06 05:59:11;;;;;;;;;;;15.50;99.90;;;;;;5118778;28;19923;-76
2021/09/06 06:01:40;;;;;;;;;;;15.50;99.90;;;;;;5118480;28;20270;-76
2021/09/06 06:04:06;;;;;;;;;;;15.60;99.90;;;;;;5118404;28;19928;-76
2021/09/06 06:06:33;;;;;;;;;;;15.60;99.90;;;;;;5118716;28;20263;-76
2021/09/06 06:09:00;;;;;;;;;;;15.60;99.90;;;;;;5118283;28;19938;-76
2021/09/06 06:11:27;;;;;;;;;;;15.60;99.90;;;;;;5118529;28;19934;-76
2021/09/06 06:13:54;;;;;;;;;;;15.60;99.90;;;;;;5118364;28;19924;-77
2021/09/06 06:16:20;;;;;;;;;;;15.60;99.90;;;;;;5118149;28;20347;-76
2021/09/06 06:18:49;;;;;;;;;;;15.70;99.90;;;;;;5118091;28;19931;-76
2021/09/06 06:21:16;;;;;;;;;;;15.70;99.90;;;;;;5118076;28;20393;-76
2021/09/06 06:23:42;;;;;;;;;;;15.80;99.90;;;;;;5118188;28;19924;-76
2021/09/06 06:26:09;;;;;;;;;;;15.80;99.90;;;;;;5118162;28;19923;-76
2021/09/06 06:28:36;;;;;;;;;;;15.80;99.90;;;;;;5118115;28;20260;-76
2021/09/06 06:31:03;;;;;;;;;;;15.80;99.90;;;;;;5118069;28;19934;-76
2021/09/06 06:33:30;;;;;;;;;;;15.80;99.90;;;;;;5117841;28;19941;-76
2021/09/06 06:35:59;;;;;;;;;;;15.80;99.90;;;;;;5117762;28;19924;-76
2021/09/06 06:38:26;;;;;;;;;;;15.80;99.90;;;;;;5117704;28;19932;-76
2021/09/06 06:40:53;;;;;;;;;;;15.80;99.90;;;;;;5117807;28;19930;-76
2021/09/06 06:43:20;;;;;;;;;;;15.80;99.90;;;;;;5117553;28;19939;-75
2021/09/06 06:45:47;;;;;;;;;;;15.80;99.90;;;;;;5117728;28;19924;-76
2021/09/06 06:48:13;;;;;;;;;;;15.90;99.90;;;;;;5117466;28;20356;-76
2021/09/06 06:50:40;;;;;;;;;;;15.90;99.90;;;;;;5117510;28;19946;-76
2021/09/06 06:53:08;;;;;;;;;;;15.90;99.90;;;;;;5117500;28;19930;-76
2021/09/06 06:55:36;;;;;;;;;;;16.00;99.90;;;;;;5117500;28;19924;-76
2021/09/06 06:58:03;;;;;;;;;;;16.10;99.90;;;;;;5117195;28;19935;-76
2021/09/06 07:00:30;;;;;;;;;;;16.10;99.90;;;;;;5117416;28;19928;-75
2021/09/06 07:02:56;;;;;;;;;;;16.20;99.90;;;;;;5117091;28;20344;-76
2021/09/06 07:05:23;;;;;;;;;;;16.30;99.90;;;;;;5117142;28;19924;-75
2021/09/06 07:07:50;;;;;;;;;;;16.40;99.90;;;;;;5117431;28;19934;-75
2021/09/06 07:10:18;;;;;;;;;;;16.40;99.90;;;;;;5117101;28;20237;-75
2021/09/06 07:12:45;;;;;;;;;;;16.50;99.90;;;;;;5117108;28;19923;-75
2021/09/06 07:15:12;;;;;;;;;;;16.60;99.90;;;;;;5116899;28;20251;-75
2021/09/06 07:17:39;;;;;;;;;;;16.60;99.90;;;;;;5116929;28;19924;-75
2021/09/06 07:20:06;;;;;;;;;;;16.60;99.90;;;;;;5116890;28;19924;-75
2021/09/06 07:22:33;;;;;;;;;;;16.60;99.90;;;;;;5117016;28;19934;-75
2021/09/06 07:25:00;;;;;;;;;;;16.70;99.90;;;;;;5117042;28;19923;-75
2021/09/06 07:27:28;;;;;;;;;;;16.70;99.90;;;;;;5116800;28;19931;-75
2021/09/06 07:29:55;;;;;;;;;;;16.80;99.90;;;;;;5116915;28;19934;-75
2021/09/06 07:32:22;;;;;;;;;;;16.80;99.90;;;;;;5116796;28;20361;-75
2021/09/06 07:34:49;;;;;;;;;;;16.80;99.90;;;;;;5116677;28;19924;-75
2021/09/06 07:37:16;;;;;;;;;;;16.80;99.90;;;;;;5116791;28;19924;-75
2021/09/06 07:39:46;;;;;;;;;;;16.80;99.90;;;;;;5116288;28;20327;-75
2021/09/06 07:42:13;;;;;;;;;;;16.80;99.90;;;;;;5116632;28;19938;-75
2021/09/06 07:44:41;;;;;;;;;;;16.80;99.90;;;;;;5116539;28;19924;-75
2021/09/06 07:47:08;;;;;;;;;;;16.80;99.90;;;;;;5116279;28;19923;-75
2021/09/06 07:49:35;;;;;;;;;;;16.80;99.90;;;;;;5116202;28;19974;-75
2021/09/06 07:52:02;;;;;;;;;;;16.80;99.90;;;;;;5116229;28;20263;-75
2021/09/06 07:54:29;;;;;;;;;;;16.90;99.90;;;;;;5116487;28;19927;-75
2021/09/06 07:56:56;;;;;;;;;;;16.90;99.90;;;;;;5116403;28;20252;-75
2021/09/06 07:59:22;;;;;;;;;;;17.00;99.90;;;;;;5116170;28;20366;-75
2021/09/06 08:01:51;;;;;;;;;;;17.10;99.90;;;;;;5116303;28;19924;-75
2021/09/06 08:04:17;;;;;;;;;;;17.20;99.90;;;;;;5116081;28;20244;-76
2021/09/06 08:06:45;;;;;;;;;;;17.30;99.90;;;;;;5116001;28;19924;-75
2021/09/06 08:09:12;;;;;;;;;;;17.50;99.90;;;;;;5115584;28;19954;-75
2021/09/06 08:11:45;;;;;;;;;;;17.60;99.90;;;;;;5115920;28;19934;-75
2021/09/06 08:14:13;;;;;;;;;;;17.60;99.90;;;;;;5115814;28;19924;-75
2021/09/06 08:16:41;;;;;;;;;;;17.80;99.90;;;;;;5115725;28;19981;-75
2021/09/06 08:19:11;;;;;;;;;;;17.90;99.90;;;;;;5115693;28;19923;-75
2021/09/06 08:21:39;;;;;;;;;;;17.90;99.90;;;;;;5115765;28;20336;-75
2021/09/06 08:24:06;;;;;;;;;;;18.00;99.90;;;;;;5115757;28;19950;-75
2021/09/06 08:26:33;;;;;;;;;;;18.00;99.90;;;;;;5115712;28;19934;-75
2021/09/06 08:29:00;;;;;;;;;;;18.10;99.90;;;;;;5115712;28;19924;-75
2021/09/06 08:31:29;;;;;;;;;;;18.10;99.90;;;;;;5115288;28;19923;-75
2021/09/06 08:33:56;;;;;;;;;;;18.20;99.90;;;;;;5115596;28;19923;-75
2021/09/06 08:36:24;;;;;;;;;;;18.10;99.90;;;;;;5115684;28;19924;-75
2021/09/06 08:38:51;;;;;;;;;;;18.10;99.90;;;;;;5114612;28;19949;-75
2021/09/06 08:41:18;;;;;;;;;;;18.10;99.90;;;;;;5115724;28;19924;-75
2021/09/06 08:43:45;;;;;;;;;;;18.20;99.90;;;;;;5115436;28;19934;-75
2021/09/06 08:46:12;;;;;;;;;;;18.20;99.90;;;;;;5115790;28;19924;-75
2021/09/06 08:48:38;;;;;;;;;;;18.20;99.90;;;;;;5115511;28;20256;-75
2021/09/06 08:51:05;;;;;;;;;;;18.20;99.90;;;;;;5115513;28;19924;-75
2021/09/06 08:53:33;;;;;;;;;;;18.20;99.90;;;;;;5115672;28;19935;-75
2021/09/06 08:56:02;;;;;;;;;;;18.30;99.90;;;;;;5115573;28;19923;-75
2021/09/06 08:58:29;;;;;;;;;;;18.30;99.90;;;;;;5115763;28;19931;-76
2021/09/06 09:00:56;;;;;;;;;;;18.40;99.90;;;;;;5115375;28;19934;-75
2021/09/06 09:03:23;;;;;;;;;;;18.50;99.90;;;;;;5115478;28;19924;-75
2021/09/06 09:05:57;;;;;;;;;;;18.60;99.90;;;;;;5115560;28;20332;-76
2021/09/06 09:08:24;;;;;;;;;;;18.80;99.90;;;;;;5115313;28;19996;-75
2021/09/06 09:10:52;;;;;;;;;;;19.00;99.90;;;;;;5115454;28;19924;-75
2021/09/06 09:13:20;;;;;;;;;;;19.00;99.90;;;;;;5115187;28;19930;-75
2021/09/06 09:15:52;;;;;;;;;;;19.00;99.90;;;;;;5115416;28;19992;-75
2021/09/06 09:18:22;;;;;;;;;;;19.00;99.90;;;;;;5115295;28;19930;-76
2021/09/06 09:20:49;;;;;;;;;;;19.00;99.90;;;;;;5115240;28;19924;-76
2021/09/06 09:23:16;;;;;;;;;;;18.90;99.90;;;;;;5118518;28;19924;-75
2021/09/06 09:25:43;;;;;;;;;;;18.90;99.90;;;;;;5119061;28;19928;-75
2021/09/06 09:28:11;;;;;;;;;;;18.90;99.90;;;;;;5119306;28;19924;-75
2021/09/06 09:30:39;;;;;;;;;;;18.90;99.90;;;;;;5119033;28;19923;-75
2021/09/06 09:33:06;;;;;;;;;;;18.90;99.90;;;;;;5118901;28;20301;-76
2021/09/06 09:35:33;;;;;;;;;;;18.90;99.90;;;;;;5118953;27;19996;-76
2021/09/06 09:38:01;;;;;;;;;;;18.90;99.90;;;;;;5118922;28;19924;-76
2021/09/06 09:40:31;;;;;;;;;;;19.00;99.90;;;;;;5118756;28;19924;-76
2021/09/06 09:42:58;;;;;;;;;;;19.00;99.90;;;;;;5119064;27;19924;-75
2021/09/06 09:45:26;;;;;;;;;;;18.90;99.90;;;;;;5118988;28;19923;-75
2021/09/06 09:47:54;;;;;;;;;;;19.00;99.90;;;;;;5118720;28;19924;-76
2021/09/06 09:50:21;;;;;;;;;;;19.10;99.90;;;;;;5118804;28;19923;-75
2021/09/06 09:52:49;;;;;;;;;;;19.30;99.90;;;;;;5118659;28;19984;-75
2021/09/06 09:55:16;;;;;;;;;;;19.40;99.90;;;;;;5118631;28;19931;-75
2021/09/06 09:57:43;;;;;;;;;;;19.50;99.90;;;;;;5118782;28;19928;-75
2021/09/06 10:00:10;;;;;;;;;;;19.60;99.90;;;;;;5118743;28;19923;-75
2021/09/06 10:02:38;;;;;;;;;;;19.70;99.90;;;;;;5118649;28;19924;-75
2021/09/06 10:05:06;;;;;;;;;;;19.80;99.90;;;;;;5118213;28;19935;-75
2021/09/06 10:07:33;;;;;;;;;;;19.80;99.90;;;;;;5118295;28;20320;-75
2021/09/06 10:10:10;;;;;;;;;;;19.80;99.90;;;;;;5118346;28;19923;-75
2021/09/06 10:12:38;;;;;;;;;;;19.80;99.90;;;;;;5118276;28;20364;-75
2021/09/06 10:15:07;;;;;;;;;;;19.90;99.90;;;;;;5118265;28;19924;-75
2021/09/06 10:17:38;;;;;;;;;;;19.90;99.90;;;;;;5118228;28;19924;-75
2021/09/06 10:20:18;;;;;;;;;;;19.90;99.90;;;;;;5118180;28;20252;-75
2021/09/06 10:22:46;;;;;;;;;;;19.90;99.90;;;;;;5118313;28;19923;-75
2021/09/06 10:25:17;;;;;;;;;;;20.00;99.90;;;;;;5117917;27;19935;-75
2021/09/06 10:27:54;;;;;;;;;;;20.20;99.90;;;;;;5117698;28;19928;-75
2021/09/06 10:30:27;;;;;;;;;;;20.30;99.90;;;;;;5117947;28;19927;-75
2021/09/06 10:32:57;;;;;;;;;;;20.40;99.90;;;;;;5117421;27;19924;-75
2021/09/06 10:35:27;;;;;;;;;;;20.40;99.90;;;;;;5117842;28;20022;-75
2021/09/06 10:38:05;;;;;;;;;;;20.50;99.90;;;;;;5117984;28;19923;-75
2021/09/06 10:40:36;;;;;;;;;;;20.50;99.90;;;;;;5117499;28;20352;-75
2021/09/06 10:43:16;;;;;;;;;;;20.50;99.90;;;;;;5117788;28;19993;-75
2021/09/06 10:45:44;;;;;;;;;;;20.60;99.90;;;;;;5117625;28;19927;-75
2021/09/06 10:48:16;;;;;;;;;;;20.60;99.90;;;;;;5117746;28;19943;-75
2021/09/06 10:50:47;;;;;;;;;;;20.60;99.90;;;;;;5117599;28;19924;-75
2021/09/06 10:53:18;;;;;;;;;;;20.60;99.90;;;;;;5117369;28;19927;-75
2021/09/06 10:55:49;;;;;;;;;;;20.60;99.90;;;;;;5116962;28;19977;-75
2021/09/06 10:58:17;;;;;;;;;;;20.60;99.90;;;;;;5117568;28;19938;-75
2021/09/06 11:00:54;;;;;;;;;;;20.60;99.90;;;;;;5117570;28;19924;-75
2021/09/06 11:03:22;;;;;;;;;;;20.60;99.90;;;;;;5117399;28;19923;-75
2021/09/06 11:05:55;;;;;;;;;;;20.60;99.90;;;;;;5117112;28;19923;-75
2021/09/06 11:08:26;;;;;;;;;;;20.50;99.90;;;;;;5117223;28;19927;-75
2021/09/06 11:10:54;;;;;;;;;;;20.60;99.90;;;;;;5117099;28;20340;-75
2021/09/06 11:13:22;;;;;;;;;;;20.70;99.90;;;;;;5117215;28;19924;-75
2021/09/06 11:15:51;;;;;;;;;;;20.70;99.90;;;;;;5117076;28;20263;-75
2021/09/06 11:18:19;;;;;;;;;;;20.70;99.90;;;;;;5117162;28;19990;-75
2021/09/06 11:20:49;;;;;;;;;;;20.80;99.90;;;;;;5116928;28;19924;-75
2021/09/06 11:23:17;;;;;;;;;;;20.80;99.90;;;;;;5116788;28;19924;-75
2021/09/06 11:25:48;;;;;;;;;;;21.00;99.90;;;;;;5116421;28;20356;-75
2021/09/06 11:28:16;;;;;;;;;;;21.00;99.90;;;;;;5116916;28;20006;-75
2021/09/06 11:30:47;;;;;;;;;;;21.00;99.90;;;;;;5116679;28;19927;-75
2021/09/06 11:33:14;;;;;;;;;;;21.10;99.90;;;;;;5116668;28;19979;-75
2021/09/06 11:35:41;;;;;;;;;;;21.10;99.90;;;;;;5116645;28;20006;-75
2021/09/06 11:38:10;;;;;;;;;;;21.20;99.90;;;;;;5116566;28;19924;-75
2021/09/06 11:40:43;;;;;;;;;;;21.20;99.90;;;;;;5116423;28;19924;-75
2021/09/06 11:43:12;;;;;;;;;;;21.30;99.90;;;;;;5116572;28;19946;-75
2021/09/06 11:45:42;;;;;;;;;;;21.30;99.90;;;;;;5115489;28;19924;-75
2021/09/06 11:48:11;;;;;;;;;;;21.40;99.90;;;;;;5116397;28;19924;-75
2021/09/06 11:50:41;;;;;;;;;;;21.40;99.90;;;;;;5116429;28;19924;-75
2021/09/06 11:53:10;;;;;;;;;;;21.40;99.90;;;;;;5116529;28;19978;-75
2021/09/06 11:55:50;;;;;;;;;;;21.40;99.90;;;;;;5116224;28;19966;-75
2021/09/06 11:58:18;;;;;;;;;;;21.50;99.90;;;;;;5116190;28;19934;-75
2021/09/06 12:00:45;;;;;;;;;;;21.50;99.90;;;;;;5116126;28;20293;-75
2021/09/06 12:03:23;;;;;;;;;;;21.40;99.90;;;;;;5116178;28;19934;-75
2021/09/06 12:05:53;;;;;;;;;;;21.30;99.90;;;;;;5115777;28;19923;-75
2021/09/06 12:08:22;;;;;;;;;;;21.30;99.90;;;;;;5116114;28;19935;-75
2021/09/06 12:10:53;;;;;;;;;;;21.30;99.90;;;;;;5116180;28;19957;-74
2021/09/06 12:13:21;;;;;;;;;;;21.40;99.90;;;;;;5116052;28;19932;-75
2021/09/06 12:15:56;;;;;;;;;;;21.50;99.90;;;;;;5115982;28;19923;-75
2021/09/06 12:18:33;;;;;;;;;;;21.50;99.90;;;;;;5115948;28;19927;-75
2021/09/06 12:21:05;;;;;;;;;;;21.60;99.90;;;;;;5115894;28;19931;-75
2021/09/06 12:23:34;;;;;;;;;;;21.70;99.90;;;;;;5115943;28;20371;-75
2021/09/06 12:26:11;;;;;;;;;;;21.70;99.90;;;;;;5115688;28;20348;-74
2021/09/06 12:28:49;;;;;;;;;;;21.80;99.90;;;;;;5115932;28;19963;-75
2021/09/06 12:31:18;;;;;;;;;;;21.80;99.90;;;;;;5115829;28;19932;-75
2021/09/06 12:33:46;;;;;;;;;;;21.90;99.90;;;;;;5115633;28;19934;-75
2021/09/06 12:36:15;;;;;;;;;;;21.90;99.90;;;;;;5115564;28;20291;-75
2021/09/06 12:38:43;;;;;;;;;;;21.90;99.90;;;;;;5114786;28;19934;-75
2021/09/06 12:41:20;;;;;;;;;;;21.90;99.90;;;;;;5115652;28;19931;-75
2021/09/06 12:43:49;;;;;;;;;;;21.80;99.90;;;;;;5115138;28;19923;-75
2021/09/06 12:46:20;;;;;;;;;;;21.80;99.90;;;;;;5115594;28;19997;-75
2021/09/06 12:48:48;;;;;;;;;;;21.80;99.90;;;;;;5115485;28;19923;-75
2021/09/06 12:51:17;;;;;;;;;;;21.80;99.90;;;;;;5115499;28;20294;-74
2021/09/06 12:53:45;;;;;;;;;;;21.70;99.90;;;;;;5115583;28;19927;-75
2021/09/06 12:56:18;;;;;;;;;;;21.60;99.90;;;;;;5117354;28;20345;-75
2021/09/06 12:58:50;;;;;;;;;;;21.60;99.90;;;;;;5119755;28;19930;-75
2021/09/06 13:01:20;;;;;;;;;;;21.50;99.90;;;;;;5119688;28;19924;-75
2021/09/06 13:03:50;;;;;;;;;;;21.50;99.90;;;;;;5119999;28;19923;-75
2021/09/06 13:06:17;;;;;;;;;;;21.50;99.90;;;;;;5119583;28;20270;-75
2021/09/06 13:08:44;;;;;;;;;;;21.50;99.90;;;;;;5119609;28;19932;-75
2021/09/06 13:11:12;;;;;;;;;;;21.50;99.90;;;;;;5119630;28;19934;-74
2021/09/06 13:13:41;;;;;;;;;;;21.50;99.90;;;;;;5114650;28;19930;-75
2021/09/06 13:16:10;;;;;;;;;;;21.50;99.90;;;;;;5119055;28;19924;-75
2021/09/06 13:18:40;;;;;;;;;;;21.50;99.90;;;;;;5119203;28;19924;-75
2021/09/06 13:21:08;;;;;;;;;;;21.50;99.90;;;;;;5117625;28;19932;-75
2021/09/06 13:23:36;;;;;;;;;;;21.60;99.90;;;;;;5118166;28;19989;-75
2021/09/06 13:26:04;;;;;;;;;;;21.60;99.90;;;;;;5119017;28;19924;-74
2021/09/06 13:28:31;;;;;;;;;;;21.60;99.90;;;;;;5119313;28;20051;-75
2021/09/06 13:30:59;;;;;;;;;;;21.60;99.90;;;;;;5118890;28;19924;-74
2021/09/06 13:33:26;;;;;;;;;;;21.60;99.90;;;;;;5118968;28;19924;-75
2021/09/06 13:35:53;;;;;;;;;;;21.60;99.90;;;;;;5118992;28;19932;-74
2021/09/06 13:38:19;;;;;;;;;;;21.60;99.90;;;;;;5118817;28;20351;-75
2021/09/06 13:40:46;;;;;;;;;;;21.70;99.90;;;;;;5118770;28;19931;-75
2021/09/06 13:43:13;;;;;;;;;;;21.70;99.90;;;;;;5118885;28;19938;-75
2021/09/06 13:45:40;;;;;;;;;;;21.70;99.90;;;;;;5118299;28;20267;-75
2021/09/06 13:48:08;;;;;;;;;;;21.70;99.90;;;;;;5115907;28;19924;-75
2021/09/06 13:50:35;;;;;;;;;;;21.80;99.90;;;;;;5118654;27;19935;-74
2021/09/06 13:53:02;;;;;;;;;;;21.80;99.90;;;;;;5118588;28;20354;-75
2021/09/06 13:55:29;;;;;;;;;;;21.80;99.90;;;;;;5118440;28;19934;-75
2021/09/06 13:57:55;;;;;;;;;;;21.80;99.90;;;;;;5118692;28;19924;-75
2021/09/06 14:00:22;;;;;;;;;;;21.80;99.90;;;;;;5118714;28;19934;-75
2021/09/06 14:02:49;;;;;;;;;;;21.90;99.90;;;;;;5118457;28;19934;-75
2021/09/06 14:05:17;;;;;;;;;;;21.80;99.90;;;;;;5118413;28;20354;-75
2021/09/06 14:07:45;;;;;;;;;;;21.90;99.90;;;;;;5117684;28;19923;-75
2021/09/06 14:10:12;;;;;;;;;;;21.90;99.90;;;;;;5118221;28;20010;-75
2021/09/06 14:12:39;;;;;;;;;;;22.00;99.90;;;;;;5118374;28;19924;-75
2021/09/06 14:15:06;;;;;;;;;;;22.00;99.90;;;;;;5118276;28;20271;-75
2021/09/06 14:17:33;;;;;;;;;;;22.10;99.90;;;;;;5118213;28;19924;-75
2021/09/06 14:20:02;;;;;;;;;;;22.20;99.90;;;;;;5118167;28;20347;-75
2021/09/06 14:22:30;;;;;;;;;;;22.20;99.90;;;;;;5117939;28;19934;-75